Bow Clipper — LAUU4 — position and weather

sailwx.info

Track history (hours):
 
Tides and Currents Weather Stations Pressure Air Temp Water Temp Dewpoint Dewpoint Depression Visibility Wind Speed Wind Dir Waves Ship Positions

Bow Clipper

Last reported at 2014-Jul-23 07:21 UTC. Time now 2014-Jul-26 03:07 UTC.
Position N 34°04' E 130°47'.

Length 188 m; draft 6.1 m.

Type: Ship (hazmat cat B). MMSI: 258946991.

Date/timePositionNaut miles runAvg speedWind from/ knotsBaromVisibWave heightAir tempDewpointWater temp
2014-Jul-23 07:21N 34°04' E 130°47'206 7.4
2014-Jul-22 03:33N 33°59' E 134°55'1413.9
2014-Jul-22 02:33N 34°12' E 134°57'1514.7
2014-Jul-22 01:33N 34°26' E 135°04'1515.1
2014-Jul-22 00:33N 34°36' E 135°18'7 6.2
2014-Jul-21 23:28N 34°39' E 135°25'0 0.0
2014-Jul-21 22:28N 34°39' E 135°25'0 0.0
2014-Jul-21 21:16N 34°39' E 135°25'0 0.0
2014-Jul-21 20:28N 34°39' E 135°25'0 0.0
2014-Jul-21 20:16N 34°39' E 135°25'0 0.0
2014-Jul-21 19:28N 34°39' E 135°25'0 0.0
2014-Jul-21 18:28N 34°39' E 135°25'0 0.0
2014-Jul-21 17:10N 34°39' E 135°25'0 0.0
2014-Jul-21 16:28N 34°39' E 135°25'0 0.0
2014-Jul-21 15:28N 34°39' E 135°25'0 0.0
2014-Jul-21 14:22N 34°39' E 135°25'0 0.0
2014-Jul-21 13:22N 34°39' E 135°25'0 0.0
2014-Jul-21 12:28N 34°39' E 135°25'0 0.0
2014-Jul-21 11:28N 34°39' E 135°25'0 0.0
2014-Jul-21 10:22N 34°39' E 135°25'0 0.0
2014-Jul-21 09:28N 34°39' E 135°25'0 0.0
2014-Jul-21 08:23N 34°39' E 135°25'0 0.2
2014-Jul-21 06:33N 34°39' E 135°25'6 6.1
2014-Jul-21 05:33N 34°39' E 135°18'0 0.3
2014-Jul-21 04:32N 34°40' E 135°18'0 0.0
2014-Jul-21 03:32N 34°40' E 135°18'0 0.0
2014-Jul-21 02:32N 34°40' E 135°18'0 0.0
2014-Jul-21 01:32N 34°40' E 135°18'0 0.0
2014-Jul-21 00:32N 34°40' E 135°18'0 0.0
2014-Jul-20 23:32N 34°40' E 135°18'0 0.0
2014-Jul-20 22:32N 34°40' E 135°18'0 0.0
2014-Jul-20 21:32N 34°40' E 135°18'0 0.0
2014-Jul-20 20:32N 34°40' E 135°18'0 0.0
2014-Jul-20 19:32N 34°40' E 135°18'0 0.0
2014-Jul-20 18:32N 34°40' E 135°18'0 0.0
2014-Jul-20 17:32N 34°40' E 135°18'0 0.0
2014-Jul-20 16:32N 34°40' E 135°18'0 0.0
2014-Jul-20 15:32N 34°40' E 135°18'0 0.0
2014-Jul-20 14:26N 34°40' E 135°18'0 0.0
2014-Jul-20 13:32N 34°40' E 135°18'0 0.0
2014-Jul-20 12:26N 34°40' E 135°18'0 0.0
2014-Jul-20 11:33N 34°40' E 135°18'7 6.9
2014-Jul-20 10:33N 34°33' E 135°14'1514.8
2014-Jul-20 09:31N 34°22' E 135°02'1313.8
2014-Jul-20 08:33N 34°09' E 134°59'218 9.4
2014-Jul-19 09:28N 34°52' E 139°18'1010.7
2014-Jul-19 08:33N 34°57' E 139°28'1211.7
2014-Jul-19 07:33N 35°04' E 139°40'1212.1
2014-Jul-19 06:33N 35°15' E 139°46'1111.1
2014-Jul-19 05:33N 35°26' E 139°44'2 1.5
2014-Jul-19 04:33N 35°27' E 139°45'0 0.0
2014-Jul-19 03:32N 35°27' E 139°45'0 0.0
2014-Jul-19 02:31N 35°27' E 139°45'0 0.0
2014-Jul-19 01:33N 35°27' E 139°45'0 0.0
2014-Jul-19 00:33N 35°27' E 139°45'0 0.0
2014-Jul-18 23:30N 35°27' E 139°45'0 0.0
2014-Jul-18 22:33N 35°27' E 139°45'0 0.0
2014-Jul-18 21:28N 35°27' E 139°45'0 0.0
2014-Jul-18 20:33N 35°27' E 139°45'0 0.0
2014-Jul-18 19:32N 35°27' E 139°45'0 0.0
2014-Jul-18 18:32N 35°27' E 139°45'0 0.0
2014-Jul-18 17:32N 35°27' E 139°45'0 0.0
2014-Jul-18 16:29N 35°27' E 139°45'0 0.0
2014-Jul-18 15:18N 35°27' E 139°45'0 0.0
2014-Jul-18 14:29N 35°27' E 139°45'0 0.0
2014-Jul-18 13:32N 35°27' E 139°45'0 0.0
2014-Jul-18 12:31N 35°27' E 139°45'0 0.0
2014-Jul-18 11:31N 35°27' E 139°45'0 0.0
2014-Jul-18 10:28N 35°27' E 139°45'0 0.0
2014-Jul-18 09:28N 35°27' E 139°45'2 2.0
2014-Jul-18 08:33N 35°26' E 139°46'1111.4
2014-Jul-18 07:33N 35°14' E 139°47'10 9.7
2014-Jul-18 06:33N 35°05' E 139°45'8 7.6
2014-Jul-18 05:33N 34°58' E 139°41'8 8.4
2014-Jul-18 04:33N 34°50' E 139°44'1412.1
2014-Jul-18 03:22N 34°47' E 140°01'1113.5
2014-Jul-18 02:33N 34°48' E 140°14'  
Track history (hours):
 
Tides and Currents Weather Stations Pressure Air Temp Water Temp Dewpoint Dewpoint Depression Visibility Wind Speed Wind Dir Waves Ship Positions

Bow Clipper

Last reported at 2014-Jul-23 07:21 UTC. Time now 2014-Jul-26 03:07 UTC.
Position N 34°04' E 130°47'.

Length 188 m; draft 6.1 m.

Type: Ship (hazmat cat B). MMSI: 258946991.

Date/timePositionNaut miles runAvg speedWind from/ knotsBaromVisibWave heightAir tempDewpointWater temp
2014-Jul-23 07:21N 34°04' E 130°47'206 7.4
2014-Jul-22 03:33N 33°59' E 134°55'1413.9
2014-Jul-22 02:33N 34°12' E 134°57'1514.7
2014-Jul-22 01:33N 34°26' E 135°04'1515.1
2014-Jul-22 00:33N 34°36' E 135°18'7 6.2
2014-Jul-21 23:28N 34°39' E 135°25'0 0.0
2014-Jul-21 22:28N 34°39' E 135°25'0 0.0
2014-Jul-21 21:16N 34°39' E 135°25'0 0.0
2014-Jul-21 20:28N 34°39' E 135°25'0 0.0
2014-Jul-21 20:16N 34°39' E 135°25'0 0.0
2014-Jul-21 19:28N 34°39' E 135°25'0 0.0
2014-Jul-21 18:28N 34°39' E 135°25'0 0.0
2014-Jul-21 17:10N 34°39' E 135°25'0 0.0
2014-Jul-21 16:28N 34°39' E 135°25'0 0.0
2014-Jul-21 15:28N 34°39' E 135°25'0 0.0
2014-Jul-21 14:22N 34°39' E 135°25'0 0.0
2014-Jul-21 13:22N 34°39' E 135°25'0 0.0
2014-Jul-21 12:28N 34°39' E 135°25'0 0.0
2014-Jul-21 11:28N 34°39' E 135°25'0 0.0
2014-Jul-21 10:22N 34°39' E 135°25'0 0.0
2014-Jul-21 09:28N 34°39' E 135°25'0 0.0
2014-Jul-21 08:23N 34°39' E 135°25'0 0.2
2014-Jul-21 06:33N 34°39' E 135°25'6 6.1
2014-Jul-21 05:33N 34°39' E 135°18'0 0.3
2014-Jul-21 04:32N 34°40' E 135°18'0 0.0
2014-Jul-21 03:32N 34°40' E 135°18'0 0.0
2014-Jul-21 02:32N 34°40' E 135°18'0 0.0
2014-Jul-21 01:32N 34°40' E 135°18'0 0.0
2014-Jul-21 00:32N 34°40' E 135°18'0 0.0
2014-Jul-20 23:32N 34°40' E 135°18'0 0.0
2014-Jul-20 22:32N 34°40' E 135°18'0 0.0
2014-Jul-20 21:32N 34°40' E 135°18'0 0.0
2014-Jul-20 20:32N 34°40' E 135°18'0 0.0
2014-Jul-20 19:32N 34°40' E 135°18'0 0.0
2014-Jul-20 18:32N 34°40' E 135°18'0 0.0
2014-Jul-20 17:32N 34°40' E 135°18'0 0.0
2014-Jul-20 16:32N 34°40' E 135°18'0 0.0
2014-Jul-20 15:32N 34°40' E 135°18'0 0.0
2014-Jul-20 14:26N 34°40' E 135°18'0 0.0
2014-Jul-20 13:32N 34°40' E 135°18'0 0.0
2014-Jul-20 12:26N 34°40' E 135°18'0 0.0
2014-Jul-20 11:33N 34°40' E 135°18'7 6.9
2014-Jul-20 10:33N 34°33' E 135°14'1514.8
2014-Jul-20 09:31N 34°22' E 135°02'1313.8
2014-Jul-20 08:33N 34°09' E 134°59'218 9.4
2014-Jul-19 09:28N 34°52' E 139°18'1010.7
2014-Jul-19 08:33N 34°57' E 139°28'1211.7
2014-Jul-19 07:33N 35°04' E 139°40'1212.1
2014-Jul-19 06:33N 35°15' E 139°46'1111.1
2014-Jul-19 05:33N 35°26' E 139°44'2 1.5
2014-Jul-19 04:33N 35°27' E 139°45'0 0.0
2014-Jul-19 03:32N 35°27' E 139°45'0 0.0
2014-Jul-19 02:31N 35°27' E 139°45'0 0.0
2014-Jul-19 01:33N 35°27' E 139°45'0 0.0
2014-Jul-19 00:33N 35°27' E 139°45'0 0.0
2014-Jul-18 23:30N 35°27' E 139°45'0 0.0
2014-Jul-18 22:33N 35°27' E 139°45'0 0.0
2014-Jul-18 21:28N 35°27' E 139°45'0 0.0
2014-Jul-18 20:33N 35°27' E 139°45'0 0.0
2014-Jul-18 19:32N 35°27' E 139°45'0 0.0
2014-Jul-18 18:32N 35°27' E 139°45'0 0.0
2014-Jul-18 17:32N 35°27' E 139°45'0 0.0
2014-Jul-18 16:29N 35°27' E 139°45'0 0.0
2014-Jul-18 15:18N 35°27' E 139°45'0 0.0
2014-Jul-18 14:29N 35°27' E 139°45'0 0.0
2014-Jul-18 13:32N 35°27' E 139°45'0 0.0
2014-Jul-18 12:31N 35°27' E 139°45'0 0.0
2014-Jul-18 11:31N 35°27' E 139°45'0 0.0
2014-Jul-18 10:28N 35°27' E 139°45'0 0.0
2014-Jul-18 09:28N 35°27' E 139°45'2 2.0
2014-Jul-18 08:33N 35°26' E 139°46'1111.4
2014-Jul-18 07:33N 35°14' E 139°47'10 9.7
2014-Jul-18 06:33N 35°05' E 139°45'8 7.6
2014-Jul-18 05:33N 34°58' E 139°41'8 8.4
2014-Jul-18 04:33N 34°50' E 139°44'1412.1
2014-Jul-18 03:22N 34°47' E 140°01'1113.5
2014-Jul-18 02:33N 34°48' E 140°14'  

Dump ship's entire track history